sensor_id;sensor_type;location;lat;lon;timestamp;temperature;humidity
47310;DHT22;33046;52.270;6.832;2022-09-03T00:01:31;20.60;53.70
47310;DHT22;33046;52.270;6.832;2022-09-03T00:03:43;20.60;53.70
47310;DHT22;33046;52.270;6.832;2022-09-03T00:05:59;20.60;53.80
47310;DHT22;33046;52.270;6.832;2022-09-03T00:08:12;20.60;53.80
47310;DHT22;33046;52.270;6.832;2022-09-03T00:10:21;20.60;53.80
47310;DHT22;33046;52.270;6.832;2022-09-03T00:12:32;20.50;53.80
47310;DHT22;33046;52.270;6.832;2022-09-03T00:14:46;20.50;53.90
47310;DHT22;33046;52.270;6.832;2022-09-03T00:16:58;20.50;53.80
47310;DHT22;33046;52.270;6.832;2022-09-03T00:19:06;20.50;53.80
47310;DHT22;33046;52.270;6.832;2022-09-03T00:21:16;20.50;54.20
47310;DHT22;33046;52.270;6.832;2022-09-03T00:23:27;20.50;54.00
47310;DHT22;33046;52.270;6.832;2022-09-03T00:25:39;20.50;54.10
47310;DHT22;33046;52.270;6.832;2022-09-03T00:27:50;20.40;54.20
47310;DHT22;33046;52.270;6.832;2022-09-03T00:30:00;20.40;53.90
47310;DHT22;33046;52.270;6.832;2022-09-03T00:32:13;20.40;53.90
47310;DHT22;33046;52.270;6.832;2022-09-03T00:34:23;20.40;53.80
47310;DHT22;33046;52.270;6.832;2022-09-03T00:36:36;20.40;54.00
47310;DHT22;33046;52.270;6.832;2022-09-03T00:38:44;20.40;54.00
47310;DHT22;33046;52.270;6.832;2022-09-03T00:41:01;20.40;54.00
47310;DHT22;33046;52.270;6.832;2022-09-03T00:43:20;20.30;54.00
47310;DHT22;33046;52.270;6.832;2022-09-03T00:45:34;20.30;54.00
47310;DHT22;33046;52.270;6.832;2022-09-03T00:47:55;20.30;54.30
47310;DHT22;33046;52.270;6.832;2022-09-03T00:50:13;20.30;54.00
47310;DHT22;33046;52.270;6.832;2022-09-03T00:52:31;20.30;54.10
47310;DHT22;33046;52.270;6.832;2022-09-03T00:54:51;20.20;54.30
47310;DHT22;33046;52.270;6.832;2022-09-03T00:57:12;20.20;54.30
47310;DHT22;33046;52.270;6.832;2022-09-03T00:59:30;20.20;54.20
47310;DHT22;33046;52.270;6.832;2022-09-03T01:01:47;20.20;54.40
47310;DHT22;33046;52.270;6.832;2022-09-03T01:04:02;20.10;54.40
47310;DHT22;33046;52.270;6.832;2022-09-03T01:06:16;20.10;54.50
47310;DHT22;33046;52.270;6.832;2022-09-03T01:08:32;20.10;54.40
47310;DHT22;33046;52.270;6.832;2022-09-03T01:10:52;20.10;54.40
47310;DHT22;33046;52.270;6.832;2022-09-03T01:13:08;20.10;54.60
47310;DHT22;33046;52.270;6.832;2022-09-03T01:15:21;20.10;54.60
47310;DHT22;33046;52.270;6.832;2022-09-03T01:17:43;20.10;54.60
47310;DHT22;33046;52.270;6.832;2022-09-03T01:20:14;20.00;54.60
47310;DHT22;33046;52.270;6.832;2022-09-03T01:22:47;20.10;54.80
47310;DHT22;33046;52.270;6.832;2022-09-03T01:25:11;20.00;54.60
47310;DHT22;33046;52.270;6.832;2022-09-03T01:27:31;20.00;54.80
47310;DHT22;33046;52.270;6.832;2022-09-03T01:29:51;20.00;54.80
47310;DHT22;33046;52.270;6.832;2022-09-03T01:32:03;19.90;54.70
47310;DHT22;33046;52.270;6.832;2022-09-03T01:34:17;19.90;55.00
47310;DHT22;33046;52.270;6.832;2022-09-03T01:36:31;19.90;55.00
47310;DHT22;33046;52.270;6.832;2022-09-03T01:38:46;19.90;55.00
47310;DHT22;33046;52.270;6.832;2022-09-03T01:41:05;19.80;55.00
47310;DHT22;33046;52.270;6.832;2022-09-03T01:43:30;19.80;55.00
47310;DHT22;33046;52.270;6.832;2022-09-03T01:45:46;19.80;55.10
47310;DHT22;33046;52.270;6.832;2022-09-03T01:48:03;19.80;55.10
47310;DHT22;33046;52.270;6.832;2022-09-03T01:50:16;19.80;55.10
47310;DHT22;33046;52.270;6.832;2022-09-03T01:52:37;19.80;55.40
47310;DHT22;33046;52.270;6.832;2022-09-03T01:54:57;19.70;55.10
47310;DHT22;33046;52.270;6.832;2022-09-03T01:57:23;19.70;55.30
47310;DHT22;33046;52.270;6.832;2022-09-03T01:59:38;19.70;55.20
47310;DHT22;33046;52.270;6.832;2022-09-03T02:01:52;19.70;55.30
47310;DHT22;33046;52.270;6.832;2022-09-03T02:04:01;19.60;55.40
47310;DHT22;33046;52.270;6.832;2022-09-03T02:06:19;19.60;55.50
47310;DHT22;33046;52.270;6.832;2022-09-03T02:08:25;19.70;55.50
47310;DHT22;33046;52.270;6.832;2022-09-03T02:10:37;19.60;55.50
47310;DHT22;33046;52.270;6.832;2022-09-03T02:12:49;19.60;55.60
47310;DHT22;33046;52.270;6.832;2022-09-03T02:14:57;19.60;55.50
47310;DHT22;33046;52.270;6.832;2022-09-03T02:17:06;19.60;55.90
47310;DHT22;33046;52.270;6.832;2022-09-03T02:19:15;19.60;55.50
47310;DHT22;33046;52.270;6.832;2022-09-03T02:21:24;19.50;55.50
47310;DHT22;33046;52.270;6.832;2022-09-03T02:23:32;19.50;55.90
47310;DHT22;33046;52.270;6.832;2022-09-03T02:25:41;19.50;55.80
47310;DHT22;33046;52.270;6.832;2022-09-03T02:27:50;19.50;55.60
47310;DHT22;33046;52.270;6.832;2022-09-03T02:29:57;19.50;55.90
47310;DHT22;33046;52.270;6.832;2022-09-03T02:32:05;19.50;55.80
47310;DHT22;33046;52.270;6.832;2022-09-03T02:34:13;19.50;56.00
47310;DHT22;33046;52.270;6.832;2022-09-03T02:36:24;19.40;55.80
47310;DHT22;33046;52.270;6.832;2022-09-03T02:38:33;19.40;55.80
47310;DHT22;33046;52.270;6.832;2022-09-03T02:40:39;19.40;55.90
47310;DHT22;33046;52.270;6.832;2022-09-03T02:42:47;19.40;56.00
47310;DHT22;33046;52.270;6.832;2022-09-03T02:44:58;19.40;56.00
47310;DHT22;33046;52.270;6.832;2022-09-03T02:47:07;19.40;56.00
47310;DHT22;33046;52.270;6.832;2022-09-03T02:49:14;19.30;56.10
47310;DHT22;33046;52.270;6.832;2022-09-03T02:51:21;19.30;56.20
47310;DHT22;33046;52.270;6.832;2022-09-03T02:53:28;19.30;56.30
47310;DHT22;33046;52.270;6.832;2022-09-03T02:55:35;19.30;56.20
47310;DHT22;33046;52.270;6.832;2022-09-03T02:57:42;19.20;56.10
47310;DHT22;33046;52.270;6.832;2022-09-03T02:59:48;19.20;56.90
47310;DHT22;33046;52.270;6.832;2022-09-03T03:01:55;19.20;56.40
47310;DHT22;33046;52.270;6.832;2022-09-03T03:04:03;19.20;57.00
47310;DHT22;33046;52.270;6.832;2022-09-03T03:06:11;19.10;56.50
47310;DHT22;33046;52.270;6.832;2022-09-03T03:08:19;19.10;56.50
47310;DHT22;33046;52.270;6.832;2022-09-03T03:10:26;19.10;56.60
47310;DHT22;33046;52.270;6.832;2022-09-03T03:12:33;19.10;56.70
47310;DHT22;33046;52.270;6.832;2022-09-03T03:14:40;19.10;56.70
47310;DHT22;33046;52.270;6.832;2022-09-03T03:16:47;19.10;56.80
47310;DHT22;33046;52.270;6.832;2022-09-03T03:18:55;19.00;56.70
47310;DHT22;33046;52.270;6.832;2022-09-03T03:21:08;19.00;56.80
47310;DHT22;33046;52.270;6.832;2022-09-03T03:23:15;19.00;56.90
47310;DHT22;33046;52.270;6.832;2022-09-03T03:25:22;19.00;57.00
47310;DHT22;33046;52.270;6.832;2022-09-03T03:27:29;19.00;57.00
47310;DHT22;33046;52.270;6.832;2022-09-03T03:29:36;18.90;57.10
47310;DHT22;33046;52.270;6.832;2022-09-03T03:31:43;19.00;57.00
47310;DHT22;33046;52.270;6.832;2022-09-03T03:33:50;18.90;57.00
47310;DHT22;33046;52.270;6.832;2022-09-03T03:35:57;18.90;57.10
47310;DHT22;33046;52.270;6.832;2022-09-03T03:38:05;18.90;57.30
47310;DHT22;33046;52.270;6.832;2022-09-03T03:40:12;18.90;57.10
47310;DHT22;33046;52.270;6.832;2022-09-03T03:42:19;18.90;57.40
47310;DHT22;33046;52.270;6.832;2022-09-03T03:44:26;18.90;57.20
47310;DHT22;33046;52.270;6.832;2022-09-03T03:46:34;18.80;57.40
47310;DHT22;33046;52.270;6.832;2022-09-03T03:48:41;18.80;57.30
47310;DHT22;33046;52.270;6.832;2022-09-03T03:50:48;18.80;57.30
47310;DHT22;33046;52.270;6.832;2022-09-03T03:52:58;18.80;57.30
47310;DHT22;33046;52.270;6.832;2022-09-03T03:55:07;18.70;57.30
47310;DHT22;33046;52.270;6.832;2022-09-03T03:57:13;18.70;57.40
47310;DHT22;33046;52.270;6.832;2022-09-03T03:59:20;18.70;57.40
47310;DHT22;33046;52.270;6.832;2022-09-03T04:01:28;18.70;57.60
47310;DHT22;33046;52.270;6.832;2022-09-03T04:03:35;18.70;57.60
47310;DHT22;33046;52.270;6.832;2022-09-03T04:05:42;18.60;57.60
47310;DHT22;33046;52.270;6.832;2022-09-03T04:07:49;18.60;57.80
47310;DHT22;33046;52.270;6.832;2022-09-03T04:09:56;18.70;58.40
47310;DHT22;33046;52.270;6.832;2022-09-03T04:12:04;18.60;57.80
47310;DHT22;33046;52.270;6.832;2022-09-03T04:14:11;18.70;57.80
47310;DHT22;33046;52.270;6.832;2022-09-03T04:16:19;18.60;57.80
47310;DHT22;33046;52.270;6.832;2022-09-03T04:18:27;18.60;57.80
47310;DHT22;33046;52.270;6.832;2022-09-03T04:20:34;18.60;57.90
47310;DHT22;33046;52.270;6.832;2022-09-03T04:22:41;18.60;57.90
47310;DHT22;33046;52.270;6.832;2022-09-03T04:24:48;18.60;57.90
47310;DHT22;33046;52.270;6.832;2022-09-03T04:26:55;18.50;58.00
47310;DHT22;33046;52.270;6.832;2022-09-03T04:29:04;18.50;58.10
47310;DHT22;33046;52.270;6.832;2022-09-03T04:31:14;18.50;58.00
47310;DHT22;33046;52.270;6.832;2022-09-03T04:33:24;18.50;58.00
47310;DHT22;33046;52.270;6.832;2022-09-03T04:35:30;18.50;58.30
47310;DHT22;33046;52.270;6.832;2022-09-03T04:37:37;18.50;58.20
47310;DHT22;33046;52.270;6.832;2022-09-03T04:39:44;18.40;58.20
47310;DHT22;33046;52.270;6.832;2022-09-03T04:41:51;18.40;58.30
47310;DHT22;33046;52.270;6.832;2022-09-03T04:43:58;18.40;58.20
47310;DHT22;33046;52.270;6.832;2022-09-03T04:46:06;18.40;58.30
47310;DHT22;33046;52.270;6.832;2022-09-03T04:48:15;18.40;58.40
47310;DHT22;33046;52.270;6.832;2022-09-03T04:50:22;18.30;58.50
47310;DHT22;33046;52.270;6.832;2022-09-03T04:52:37;18.30;58.50
47310;DHT22;33046;52.270;6.832;2022-09-03T04:54:44;18.30;59.20
47310;DHT22;33046;52.270;6.832;2022-09-03T04:56:51;18.30;58.70
47310;DHT22;33046;52.270;6.832;2022-09-03T04:58:59;18.30;58.90
47310;DHT22;33046;52.270;6.832;2022-09-03T05:01:08;18.30;58.90
47310;DHT22;33046;52.270;6.832;2022-09-03T05:03:15;18.30;58.90
47310;DHT22;33046;52.270;6.832;2022-09-03T05:05:22;18.30;58.70
47310;DHT22;33046;52.270;6.832;2022-09-03T05:07:29;18.30;59.00
47310;DHT22;33046;52.270;6.832;2022-09-03T05:09:36;18.20;59.00
47310;DHT22;33046;52.270;6.832;2022-09-03T05:11:43;18.30;59.00
47310;DHT22;33046;52.270;6.832;2022-09-03T05:13:51;18.20;58.90
47310;DHT22;33046;52.270;6.832;2022-09-03T05:15:59;18.30;59.00
47310;DHT22;33046;52.270;6.832;2022-09-03T05:18:07;18.20;59.00
47310;DHT22;33046;52.270;6.832;2022-09-03T05:20:14;18.20;59.10
47310;DHT22;33046;52.270;6.832;2022-09-03T05:22:21;18.20;59.30
47310;DHT22;33046;52.270;6.832;2022-09-03T05:24:27;18.20;59.30
47310;DHT22;33046;52.270;6.832;2022-09-03T05:26:36;18.20;59.40
47310;DHT22;33046;52.270;6.832;2022-09-03T05:28:44;18.20;59.40
47310;DHT22;33046;52.270;6.832;2022-09-03T05:30:58;18.20;59.40
47310;DHT22;33046;52.270;6.832;2022-09-03T05:33:04;18.20;59.60
47310;DHT22;33046;52.270;6.832;2022-09-03T05:35:13;18.20;59.40
47310;DHT22;33046;52.270;6.832;2022-09-03T05:37:19;18.20;59.50
47310;DHT22;33046;52.270;6.832;2022-09-03T05:39:26;18.20;59.70
47310;DHT22;33046;52.270;6.832;2022-09-03T05:41:33;18.20;59.80
47310;DHT22;33046;52.270;6.832;2022-09-03T05:43:40;18.20;59.80
47310;DHT22;33046;52.270;6.832;2022-09-03T05:45:47;18.20;59.90
47310;DHT22;33046;52.270;6.832;2022-09-03T05:47:54;18.20;59.70
47310;DHT22;33046;52.270;6.832;2022-09-03T05:50:01;18.20;59.90
47310;DHT22;33046;52.270;6.832;2022-09-03T05:52:09;18.20;59.80
47310;DHT22;33046;52.270;6.832;2022-09-03T05:54:15;18.20;59.90
47310;DHT22;33046;52.270;6.832;2022-09-03T05:56:24;18.20;59.90
47310;DHT22;33046;52.270;6.832;2022-09-03T05:58:31;18.20;59.90
47310;DHT22;33046;52.270;6.832;2022-09-03T06:00:38;18.30;59.80
47310;DHT22;33046;52.270;6.832;2022-09-03T06:02:49;18.30;59.80
47310;DHT22;33046;52.270;6.832;2022-09-03T06:04:56;18.30;59.90
47310;DHT22;33046;52.270;6.832;2022-09-03T06:07:03;18.30;60.10
47310;DHT22;33046;52.270;6.832;2022-09-03T06:09:12;18.30;59.90
47310;DHT22;33046;52.270;6.832;2022-09-03T06:11:19;18.30;59.80
47310;DHT22;33046;52.270;6.832;2022-09-03T06:13:26;18.40;60.00
47310;DHT22;33046;52.270;6.832;2022-09-03T06:15:32;18.40;60.10
47310;DHT22;33046;52.270;6.832;2022-09-03T06:17:39;18.30;60.10
47310;DHT22;33046;52.270;6.832;2022-09-03T06:19:46;18.40;60.10
47310;DHT22;33046;52.270;6.832;2022-09-03T06:21:53;18.40;60.30
47310;DHT22;33046;52.270;6.832;2022-09-03T06:23:59;18.40;60.00
47310;DHT22;33046;52.270;6.832;2022-09-03T06:26:09;18.40;60.20
47310;DHT22;33046;52.270;6.832;2022-09-03T06:28:16;18.40;59.90
47310;DHT22;33046;52.270;6.832;2022-09-03T06:30:23;18.40;59.90
47310;DHT22;33046;52.270;6.832;2022-09-03T06:32:30;18.40;60.10
47310;DHT22;33046;52.270;6.832;2022-09-03T06:34:36;18.50;60.10
47310;DHT22;33046;52.270;6.832;2022-09-03T06:36:44;18.50;60.20
47310;DHT22;33046;52.270;6.832;2022-09-03T06:38:52;18.60;60.20
47310;DHT22;33046;52.270;6.832;2022-09-03T06:41:00;18.50;60.10
47310;DHT22;33046;52.270;6.832;2022-09-03T06:43:08;18.60;60.10
47310;DHT22;33046;52.270;6.832;2022-09-03T06:45:15;18.60;60.00
47310;DHT22;33046;52.270;6.832;2022-09-03T06:47:22;18.70;60.20
47310;DHT22;33046;52.270;6.832;2022-09-03T06:49:29;18.70;60.10
47310;DHT22;33046;52.270;6.832;2022-09-03T06:51:36;18.90;59.90
47310;DHT22;33046;52.270;6.832;2022-09-03T06:53:44;19.00;59.70
47310;DHT22;33046;52.270;6.832;2022-09-03T06:55:52;19.10;59.60
47310;DHT22;33046;52.270;6.832;2022-09-03T06:57:59;19.20;59.30
47310;DHT22;33046;52.270;6.832;2022-09-03T07:00:08;19.20;58.80
47310;DHT22;33046;52.270;6.832;2022-09-03T07:02:15;19.40;59.00
47310;DHT22;33046;52.270;6.832;2022-09-03T07:04:22;19.50;59.20
47310;DHT22;33046;52.270;6.832;2022-09-03T07:06:30;19.60;58.80
47310;DHT22;33046;52.270;6.832;2022-09-03T07:08:37;19.60;58.50
47310;DHT22;33046;52.270;6.832;2022-09-03T07:10:47;19.70;58.50
47310;DHT22;33046;52.270;6.832;2022-09-03T07:12:54;19.80;58.40
47310;DHT22;33046;52.270;6.832;2022-09-03T07:15:00;19.80;58.60
47310;DHT22;33046;52.270;6.832;2022-09-03T07:17:08;19.90;58.50
47310;DHT22;33046;52.270;6.832;2022-09-03T07:19:16;19.90;58.40
47310;DHT22;33046;52.270;6.832;2022-09-03T07:21:24;20.00;58.30
47310;DHT22;33046;52.270;6.832;2022-09-03T07:23:31;20.00;58.40
47310;DHT22;33046;52.270;6.832;2022-09-03T07:25:38;20.10;58.70
47310;DHT22;33046;52.270;6.832;2022-09-03T07:27:45;20.10;57.80
47310;DHT22;33046;52.270;6.832;2022-09-03T07:29:52;20.10;58.00
47310;DHT22;33046;52.270;6.832;2022-09-03T07:31:58;20.20;58.10
47310;DHT22;33046;52.270;6.832;2022-09-03T07:34:07;20.20;58.10
47310;DHT22;33046;52.270;6.832;2022-09-03T07:36:16;20.30;57.60
47310;DHT22;33046;52.270;6.832;2022-09-03T07:38:23;20.30;57.60
47310;DHT22;33046;52.270;6.832;2022-09-03T07:40:30;20.40;58.20
47310;DHT22;33046;52.270;6.832;2022-09-03T07:42:37;20.50;58.60
47310;DHT22;33046;52.270;6.832;2022-09-03T07:44:43;20.60;58.00
47310;DHT22;33046;52.270;6.832;2022-09-03T07:46:50;20.60;57.90
47310;DHT22;33046;52.270;6.832;2022-09-03T07:48:58;20.70;59.00
47310;DHT22;33046;52.270;6.832;2022-09-03T07:51:07;20.70;59.00
47310;DHT22;33046;52.270;6.832;2022-09-03T07:53:15;20.70;58.30
47310;DHT22;33046;52.270;6.832;2022-09-03T07:55:22;20.70;57.20
47310;DHT22;33046;52.270;6.832;2022-09-03T07:57:28;20.80;57.90
47310;DHT22;33046;52.270;6.832;2022-09-03T07:59:35;20.80;57.80
47310;DHT22;33046;52.270;6.832;2022-09-03T08:01:42;20.90;58.30
47310;DHT22;33046;52.270;6.832;2022-09-03T08:03:50;20.90;57.50
47310;DHT22;33046;52.270;6.832;2022-09-03T08:06:00;21.00;57.80
47310;DHT22;33046;52.270;6.832;2022-09-03T08:08:08;21.00;57.80
47310;DHT22;33046;52.270;6.832;2022-09-03T08:10:15;21.10;57.80
47310;DHT22;33046;52.270;6.832;2022-09-03T08:12:21;21.20;58.70
47310;DHT22;33046;52.270;6.832;2022-09-03T08:14:28;21.20;59.10
47310;DHT22;33046;52.270;6.832;2022-09-03T08:16:36;21.30;56.80
47310;DHT22;33046;52.270;6.832;2022-09-03T08:18:44;21.20;56.90
47310;DHT22;33046;52.270;6.832;2022-09-03T08:20:51;21.30;57.40
47310;DHT22;33046;52.270;6.832;2022-09-03T08:23:01;21.40;57.00
47310;DHT22;33046;52.270;6.832;2022-09-03T08:25:09;21.40;56.50
47310;DHT22;33046;52.270;6.832;2022-09-03T08:27:16;21.50;56.60
47310;DHT22;33046;52.270;6.832;2022-09-03T08:29:23;21.50;56.40
47310;DHT22;33046;52.270;6.832;2022-09-03T08:31:31;21.60;56.50
47310;DHT22;33046;52.270;6.832;2022-09-03T08:33:39;21.60;57.20
47310;DHT22;33046;52.270;6.832;2022-09-03T08:35:51;21.70;57.40
47310;DHT22;33046;52.270;6.832;2022-09-03T08:37:58;21.80;57.80
47310;DHT22;33046;52.270;6.832;2022-09-03T08:40:06;21.80;57.50
47310;DHT22;33046;52.270;6.832;2022-09-03T08:42:32;21.90;57.40
47310;DHT22;33046;52.270;6.832;2022-09-03T08:44:44;21.90;56.30
47310;DHT22;33046;52.270;6.832;2022-09-03T08:46:55;22.00;56.10
47310;DHT22;33046;52.270;6.832;2022-09-03T08:49:03;22.00;56.30
47310;DHT22;33046;52.270;6.832;2022-09-03T08:51:11;22.00;56.20
47310;DHT22;33046;52.270;6.832;2022-09-03T08:53:22;22.20;56.90
47310;DHT22;33046;52.270;6.832;2022-09-03T08:55:34;22.20;57.40
47310;DHT22;33046;52.270;6.832;2022-09-03T08:57:46;22.20;56.70
47310;DHT22;33046;52.270;6.832;2022-09-03T08:59:54;22.30;56.40
47310;DHT22;33046;52.270;6.832;2022-09-03T09:02:09;22.30;55.30
47310;DHT22;33046;52.270;6.832;2022-09-03T09:04:31;22.30;56.10
47310;DHT22;33046;52.270;6.832;2022-09-03T09:06:45;22.40;55.80
47310;DHT22;33046;52.270;6.832;2022-09-03T09:09:01;22.40;55.10
47310;DHT22;33046;52.270;6.832;2022-09-03T09:11:18;22.50;55.70
47310;DHT22;33046;52.270;6.832;2022-09-03T09:13:30;22.60;55.40
47310;DHT22;33046;52.270;6.832;2022-09-03T09:15:44;22.70;55.70
47310;DHT22;33046;52.270;6.832;2022-09-03T09:18:03;22.70;55.60
47310;DHT22;33046;52.270;6.832;2022-09-03T09:20:17;22.80;54.60
47310;DHT22;33046;52.270;6.832;2022-09-03T09:22:29;22.90;55.10
47310;DHT22;33046;52.270;6.832;2022-09-03T09:24:40;22.90;54.80
47310;DHT22;33046;52.270;6.832;2022-09-03T09:26:48;23.00;54.80
47310;DHT22;33046;52.270;6.832;2022-09-03T09:28:58;22.90;54.10
47310;DHT22;33046;52.270;6.832;2022-09-03T09:31:09;23.00;54.70
47310;DHT22;33046;52.270;6.832;2022-09-03T09:33:18;23.10;55.30
47310;DHT22;33046;52.270;6.832;2022-09-03T09:35:25;23.10;55.50
47310;DHT22;33046;52.270;6.832;2022-09-03T09:37:32;23.20;54.00
47310;DHT22;33046;52.270;6.832;2022-09-03T09:39:40;23.20;53.90
47310;DHT22;33046;52.270;6.832;2022-09-03T09:41:57;23.20;54.00
47310;DHT22;33046;52.270;6.832;2022-09-03T09:44:05;23.40;55.30
47310;DHT22;33046;52.270;6.832;2022-09-03T09:46:14;23.40;55.30
47310;DHT22;33046;52.270;6.832;2022-09-03T09:48:23;23.50;54.20
47310;DHT22;33046;52.270;6.832;2022-09-03T09:50:31;23.60;52.90
47310;DHT22;33046;52.270;6.832;2022-09-03T09:52:38;23.60;53.40
47310;DHT22;33046;52.270;6.832;2022-09-03T09:54:45;23.70;53.90
47310;DHT22;33046;52.270;6.832;2022-09-03T09:56:59;23.80;54.30
47310;DHT22;33046;52.270;6.832;2022-09-03T09:59:09;23.80;53.10
47310;DHT22;33046;52.270;6.832;2022-09-03T10:01:21;23.90;52.70
47310;DHT22;33046;52.270;6.832;2022-09-03T10:03:30;23.90;52.30
47310;DHT22;33046;52.270;6.832;2022-09-03T10:05:38;23.90;51.80
47310;DHT22;33046;52.270;6.832;2022-09-03T10:07:55;24.00;53.00
47310;DHT22;33046;52.270;6.832;2022-09-03T10:10:05;24.10;52.00
47310;DHT22;33046;52.270;6.832;2022-09-03T10:12:19;24.20;52.10
47310;DHT22;33046;52.270;6.832;2022-09-03T10:14:33;24.20;51.90
47310;DHT22;33046;52.270;6.832;2022-09-03T10:16:43;24.20;52.50
47310;DHT22;33046;52.270;6.832;2022-09-03T10:18:57;24.30;51.80
47310;DHT22;33046;52.270;6.832;2022-09-03T10:21:11;24.40;51.80
47310;DHT22;33046;52.270;6.832;2022-09-03T10:23:23;24.40;52.00
47310;DHT22;33046;52.270;6.832;2022-09-03T10:25:37;24.50;52.10
47310;DHT22;33046;52.270;6.832;2022-09-03T10:27:44;24.50;51.20
47310;DHT22;33046;52.270;6.832;2022-09-03T10:29:52;24.60;51.10
47310;DHT22;33046;52.270;6.832;2022-09-03T10:32:10;24.60;51.00
47310;DHT22;33046;52.270;6.832;2022-09-03T10:34:23;24.60;52.40
47310;DHT22;33046;52.270;6.832;2022-09-03T10:36:36;24.70;51.70
47310;DHT22;33046;52.270;6.832;2022-09-03T10:38:49;24.80;51.60
47310;DHT22;33046;52.270;6.832;2022-09-03T10:41:07;24.80;51.40
47310;DHT22;33046;52.270;6.832;2022-09-03T10:43:27;24.90;51.00
47310;DHT22;33046;52.270;6.832;2022-09-03T10:45:45;24.80;50.70
47310;DHT22;33046;52.270;6.832;2022-09-03T10:48:06;25.00;51.60
47310;DHT22;33046;52.270;6.832;2022-09-03T10:50:18;25.00;50.90
47310;DHT22;33046;52.270;6.832;2022-09-03T10:52:33;25.10;50.30
47310;DHT22;33046;52.270;6.832;2022-09-03T10:54:54;25.10;50.70
47310;DHT22;33046;52.270;6.832;2022-09-03T10:57:11;25.20;50.30
47310;DHT22;33046;52.270;6.832;2022-09-03T10:59:32;25.20;50.60
47310;DHT22;33046;52.270;6.832;2022-09-03T11:01:49;25.30;50.60
47310;DHT22;33046;52.270;6.832;2022-09-03T11:04:17;25.30;50.90
47310;DHT22;33046;52.270;6.832;2022-09-03T11:06:28;25.40;49.70
47310;DHT22;33046;52.270;6.832;2022-09-03T11:08:38;25.40;49.40
47310;DHT22;33046;52.270;6.832;2022-09-03T11:10:50;25.40;49.80
47310;DHT22;33046;52.270;6.832;2022-09-03T11:13:02;25.50;49.40
47310;DHT22;33046;52.270;6.832;2022-09-03T11:15:15;25.50;49.20
47310;DHT22;33046;52.270;6.832;2022-09-03T11:17:28;25.50;48.80
47310;DHT22;33046;52.270;6.832;2022-09-03T11:19:39;25.60;48.70
47310;DHT22;33046;52.270;6.832;2022-09-03T11:21:47;25.60;49.20
47310;DHT22;33046;52.270;6.832;2022-09-03T11:24:03;25.70;49.90
47310;DHT22;33046;52.270;6.832;2022-09-03T11:26:14;25.70;49.90
47310;DHT22;33046;52.270;6.832;2022-09-03T11:28:31;25.70;49.70
47310;DHT22;33046;52.270;6.832;2022-09-03T11:30:51;25.80;49.00
47310;DHT22;33046;52.270;6.832;2022-09-03T11:33:07;25.80;50.10
47310;DHT22;33046;52.270;6.832;2022-09-03T11:35:23;25.80;49.60
47310;DHT22;33046;52.270;6.832;2022-09-03T11:37:30;25.90;49.10
47310;DHT22;33046;52.270;6.832;2022-09-03T11:39:39;25.90;49.60
47310;DHT22;33046;52.270;6.832;2022-09-03T11:41:56;25.90;49.20
47310;DHT22;33046;52.270;6.832;2022-09-03T11:44:15;26.00;49.30
47310;DHT22;33046;52.270;6.832;2022-09-03T11:46:29;26.00;49.30
47310;DHT22;33046;52.270;6.832;2022-09-03T11:48:39;26.00;48.00
47310;DHT22;33046;52.270;6.832;2022-09-03T11:50:54;26.00;48.50
47310;DHT22;33046;52.270;6.832;2022-09-03T11:53:21;26.10;48.60
47310;DHT22;33046;52.270;6.832;2022-09-03T11:55:31;26.10;48.80
47310;DHT22;33046;52.270;6.832;2022-09-03T11:57:41;26.10;47.90
47310;DHT22;33046;52.270;6.832;2022-09-03T11:59:48;26.20;47.80
47310;DHT22;33046;52.270;6.832;2022-09-03T12:01:58;26.20;48.80
47310;DHT22;33046;52.270;6.832;2022-09-03T12:04:07;26.30;48.70
47310;DHT22;33046;52.270;6.832;2022-09-03T12:06:42;26.30;48.30
47310;DHT22;33046;52.270;6.832;2022-09-03T12:09:06;26.30;48.60
47310;DHT22;33046;52.270;6.832;2022-09-03T12:11:43;26.30;48.10
47310;DHT22;33046;52.270;6.832;2022-09-03T12:13:59;26.30;47.70
47310;DHT22;33046;52.270;6.832;2022-09-03T12:16:46;26.40;46.60
47310;DHT22;33046;52.270;6.832;2022-09-03T12:19:00;26.50;47.90
47310;DHT22;33046;52.270;6.832;2022-09-03T12:21:10;26.50;47.90
47310;DHT22;33046;52.270;6.832;2022-09-03T12:23:26;26.50;46.60
47310;DHT22;33046;52.270;6.832;2022-09-03T12:25:33;26.50;48.00
47310;DHT22;33046;52.270;6.832;2022-09-03T12:27:42;26.60;47.80
47310;DHT22;33046;52.270;6.832;2022-09-03T12:29:52;26.60;47.80
47310;DHT22;33046;52.270;6.832;2022-09-03T12:32:08;26.60;47.90
47310;DHT22;33046;52.270;6.832;2022-09-03T12:34:18;26.70;48.10
47310;DHT22;33046;52.270;6.832;2022-09-03T12:36:36;26.70;47.30
47310;DHT22;33046;52.270;6.832;2022-09-03T12:38:43;26.70;46.80
47310;DHT22;33046;52.270;6.832;2022-09-03T12:41:21;26.70;48.50
47310;DHT22;33046;52.270;6.832;2022-09-03T12:43:29;26.70;48.20
47310;DHT22;33046;52.270;6.832;2022-09-03T12:45:46;26.70;47.90
47310;DHT22;33046;52.270;6.832;2022-09-03T12:48:13;26.70;47.90
47310;DHT22;33046;52.270;6.832;2022-09-03T12:50:22;26.70;47.60
47310;DHT22;33046;52.270;6.832;2022-09-03T12:52:33;26.80;47.60
47310;DHT22;33046;52.270;6.832;2022-09-03T12:54:45;26.70;47.30
47310;DHT22;33046;52.270;6.832;2022-09-03T12:56:55;26.80;46.60
47310;DHT22;33046;52.270;6.832;2022-09-03T12:59:06;26.80;46.50
47310;DHT22;33046;52.270;6.832;2022-09-03T13:01:15;26.80;47.00
47310;DHT22;33046;52.270;6.832;2022-09-03T13:03:28;26.80;48.00
47310;DHT22;33046;52.270;6.832;2022-09-03T13:05:40;26.80;47.20
47310;DHT22;33046;52.270;6.832;2022-09-03T13:07:51;26.90;46.80
47310;DHT22;33046;52.270;6.832;2022-09-03T13:10:03;26.80;46.70
47310;DHT22;33046;52.270;6.832;2022-09-03T13:12:20;26.80;47.20
47310;DHT22;33046;52.270;6.832;2022-09-03T13:14:27;26.70;46.80
47310;DHT22;33046;52.270;6.832;2022-09-03T13:19:21;26.80;47.20
47310;DHT22;33046;52.270;6.832;2022-09-03T13:21:40;26.80;47.50
47310;DHT22;33046;52.270;6.832;2022-09-03T13:24:18;26.90;46.80
47310;DHT22;33046;52.270;6.832;2022-09-03T13:26:38;26.80;46.80
47310;DHT22;33046;52.270;6.832;2022-09-03T13:28:59;26.80;47.40
47310;DHT22;33046;52.270;6.832;2022-09-03T13:31:22;26.80;47.20
47310;DHT22;33046;52.270;6.832;2022-09-03T13:33:36;26.80;47.30
47310;DHT22;33046;52.270;6.832;2022-09-03T13:35:47;26.80;47.90
47310;DHT22;33046;52.270;6.832;2022-09-03T13:37:58;26.80;47.80
47310;DHT22;33046;52.270;6.832;2022-09-03T13:40:17;26.80;47.40
47310;DHT22;33046;52.270;6.832;2022-09-03T13:42:26;26.80;47.40
47310;DHT22;33046;52.270;6.832;2022-09-03T13:44:43;26.80;47.40
47310;DHT22;33046;52.270;6.832;2022-09-03T13:46:51;26.90;47.40
47310;DHT22;33046;52.270;6.832;2022-09-03T13:49:06;26.90;48.20
47310;DHT22;33046;52.270;6.832;2022-09-03T13:51:19;26.90;47.60